sensor_id;sensor_type;location;lat;lon;timestamp;temperature;humidity
12053;DHT22;6087;48.982;12.064;2023-02-22T00:01:32;9.00;88.60
12053;DHT22;6087;48.982;12.064;2023-02-22T00:04:01;9.00;88.70
12053;DHT22;6087;48.982;12.064;2023-02-22T00:06:29;9.00;88.80
12053;DHT22;6087;48.982;12.064;2023-02-22T00:08:57;9.00;89.10
12053;DHT22;6087;48.982;12.064;2023-02-22T00:11:24;9.00;90.00
12053;DHT22;6087;48.982;12.064;2023-02-22T00:13:53;9.00;90.70
12053;DHT22;6087;48.982;12.064;2023-02-22T00:16:22;9.00;91.20
12053;DHT22;6087;48.982;12.064;2023-02-22T00:18:49;9.10;90.40
12053;DHT22;6087;48.982;12.064;2023-02-22T00:21:16;9.00;90.30
12053;DHT22;6087;48.982;12.064;2023-02-22T00:23:45;9.00;88.40
12053;DHT22;6087;48.982;12.064;2023-02-22T00:26:13;9.00;87.90
12053;DHT22;6087;48.982;12.064;2023-02-22T00:28:43;9.00;89.10
12053;DHT22;6087;48.982;12.064;2023-02-22T00:31:12;9.00;89.90
12053;DHT22;6087;48.982;12.064;2023-02-22T00:33:40;8.90;91.10
12053;DHT22;6087;48.982;12.064;2023-02-22T00:36:07;8.90;90.40
12053;DHT22;6087;48.982;12.064;2023-02-22T00:38:35;8.90;90.70
12053;DHT22;6087;48.982;12.064;2023-02-22T00:41:02;8.80;90.20
12053;DHT22;6087;48.982;12.064;2023-02-22T00:43:29;8.90;90.40
12053;DHT22;6087;48.982;12.064;2023-02-22T00:45:56;8.80;90.90
12053;DHT22;6087;48.982;12.064;2023-02-22T00:48:24;8.70;92.10
12053;DHT22;6087;48.982;12.064;2023-02-22T00:50:51;8.60;92.20
12053;DHT22;6087;48.982;12.064;2023-02-22T00:53:20;8.50;91.40
12053;DHT22;6087;48.982;12.064;2023-02-22T00:55:47;8.50;90.20
12053;DHT22;6087;48.982;12.064;2023-02-22T00:58:15;8.50;90.30
12053;DHT22;6087;48.982;12.064;2023-02-22T01:00:43;8.50;90.00
12053;DHT22;6087;48.982;12.064;2023-02-22T01:03:12;8.50;89.90
12053;DHT22;6087;48.982;12.064;2023-02-22T01:05:41;8.40;90.30
12053;DHT22;6087;48.982;12.064;2023-02-22T01:08:10;8.40;90.10
12053;DHT22;6087;48.982;12.064;2023-02-22T01:10:38;8.30;90.30
12053;DHT22;6087;48.982;12.064;2023-02-22T01:13:06;8.30;90.60
12053;DHT22;6087;48.982;12.064;2023-02-22T01:15:38;8.30;90.60
12053;DHT22;6087;48.982;12.064;2023-02-22T01:18:05;8.30;92.00
12053;DHT22;6087;48.982;12.064;2023-02-22T01:20:33;8.20;91.90
12053;DHT22;6087;48.982;12.064;2023-02-22T01:23:02;8.20;91.50
12053;DHT22;6087;48.982;12.064;2023-02-22T01:25:31;8.20;91.60
12053;DHT22;6087;48.982;12.064;2023-02-22T01:28:00;8.20;92.10
12053;DHT22;6087;48.982;12.064;2023-02-22T01:30:29;8.30;91.90
12053;DHT22;6087;48.982;12.064;2023-02-22T01:32:57;8.30;91.20
12053;DHT22;6087;48.982;12.064;2023-02-22T01:35:26;8.30;91.50
12053;DHT22;6087;48.982;12.064;2023-02-22T01:37:54;8.30;91.70
12053;DHT22;6087;48.982;12.064;2023-02-22T01:40:24;8.30;92.30
12053;DHT22;6087;48.982;12.064;2023-02-22T01:42:52;8.30;92.80
12053;DHT22;6087;48.982;12.064;2023-02-22T01:45:44;8.30;93.20
12053;DHT22;6087;48.982;12.064;2023-02-22T01:48:17;8.30;92.30
12053;DHT22;6087;48.982;12.064;2023-02-22T01:50:49;8.30;92.80
12053;DHT22;6087;48.982;12.064;2023-02-22T01:53:19;8.30;93.00
12053;DHT22;6087;48.982;12.064;2023-02-22T01:55:49;8.30;92.90
12053;DHT22;6087;48.982;12.064;2023-02-22T01:58:18;8.20;91.50
12053;DHT22;6087;48.982;12.064;2023-02-22T02:00:46;8.20;91.00
12053;DHT22;6087;48.982;12.064;2023-02-22T02:03:16;8.10;92.20
12053;DHT22;6087;48.982;12.064;2023-02-22T02:05:46;8.10;92.00
12053;DHT22;6087;48.982;12.064;2023-02-22T02:08:22;8.10;92.00
12053;DHT22;6087;48.982;12.064;2023-02-22T02:10:52;8.10;92.90
12053;DHT22;6087;48.982;12.064;2023-02-22T02:13:20;8.00;96.00
12053;DHT22;6087;48.982;12.064;2023-02-22T02:15:47;8.00;95.20
12053;DHT22;6087;48.982;12.064;2023-02-22T02:18:17;8.10;93.90
12053;DHT22;6087;48.982;12.064;2023-02-22T02:20:50;8.10;93.90
12053;DHT22;6087;48.982;12.064;2023-02-22T02:27:03;8.10;94.20
12053;DHT22;6087;48.982;12.064;2023-02-22T02:32:55;8.00;94.30
12053;DHT22;6087;48.982;12.064;2023-02-22T02:35:33;8.00;96.00
12053;DHT22;6087;48.982;12.064;2023-02-22T02:38:09;8.00;95.20
12053;DHT22;6087;48.982;12.064;2023-02-22T02:40:40;8.00;95.70
12053;DHT22;6087;48.982;12.064;2023-02-22T02:43:16;8.00;95.50
12053;DHT22;6087;48.982;12.064;2023-02-22T02:45:47;8.00;94.70
12053;DHT22;6087;48.982;12.064;2023-02-22T02:48:20;8.00;94.10
12053;DHT22;6087;48.982;12.064;2023-02-22T02:50:49;7.90;93.40
12053;DHT22;6087;48.982;12.064;2023-02-22T02:53:20;7.90;93.20
12053;DHT22;6087;48.982;12.064;2023-02-22T02:55:48;7.80;93.00
12053;DHT22;6087;48.982;12.064;2023-02-22T02:58:17;7.80;93.70
12053;DHT22;6087;48.982;12.064;2023-02-22T03:00:45;7.80;93.80
12053;DHT22;6087;48.982;12.064;2023-02-22T03:03:28;7.80;93.90
12053;DHT22;6087;48.982;12.064;2023-02-22T03:06:15;7.80;94.60
12053;DHT22;6087;48.982;12.064;2023-02-22T03:08:48;7.80;94.90
12053;DHT22;6087;48.982;12.064;2023-02-22T03:11:21;7.80;94.50
12053;DHT22;6087;48.982;12.064;2023-02-22T03:13:56;7.70;94.70
12053;DHT22;6087;48.982;12.064;2023-02-22T03:16:31;7.70;95.00
12053;DHT22;6087;48.982;12.064;2023-02-22T03:19:06;7.70;94.50
12053;DHT22;6087;48.982;12.064;2023-02-22T03:21:41;7.70;94.20
12053;DHT22;6087;48.982;12.064;2023-02-22T03:24:15;7.70;95.30
12053;DHT22;6087;48.982;12.064;2023-02-22T03:26:48;7.70;94.90
12053;DHT22;6087;48.982;12.064;2023-02-22T03:29:20;7.70;94.50
12053;DHT22;6087;48.982;12.064;2023-02-22T03:31:52;7.70;95.70
12053;DHT22;6087;48.982;12.064;2023-02-22T03:34:23;7.70;96.40
12053;DHT22;6087;48.982;12.064;2023-02-22T03:36:55;7.70;96.90
12053;DHT22;6087;48.982;12.064;2023-02-22T03:39:25;7.70;97.10
12053;DHT22;6087;48.982;12.064;2023-02-22T03:41:57;7.70;97.90
12053;DHT22;6087;48.982;12.064;2023-02-22T03:44:30;7.70;98.00
12053;DHT22;6087;48.982;12.064;2023-02-22T03:47:01;7.70;98.30
12053;DHT22;6087;48.982;12.064;2023-02-22T03:49:35;7.60;98.50
12053;DHT22;6087;48.982;12.064;2023-02-22T03:52:04;7.60;98.40
12053;DHT22;6087;48.982;12.064;2023-02-22T03:54:32;7.60;98.80
12053;DHT22;6087;48.982;12.064;2023-02-22T03:57:03;7.60;98.40
12053;DHT22;6087;48.982;12.064;2023-02-22T03:59:32;7.60;98.50
12053;DHT22;6087;48.982;12.064;2023-02-22T04:01:59;7.50;99.10
12053;DHT22;6087;48.982;12.064;2023-02-22T04:04:26;7.50;99.40
12053;DHT22;6087;48.982;12.064;2023-02-22T04:06:55;7.50;99.40
12053;DHT22;6087;48.982;12.064;2023-02-22T04:09:22;7.50;99.80
12053;DHT22;6087;48.982;12.064;2023-02-22T04:11:49;7.50;99.90
12053;DHT22;6087;48.982;12.064;2023-02-22T04:14:15;7.50;99.90
12053;DHT22;6087;48.982;12.064;2023-02-22T04:16:42;7.50;99.90
12053;DHT22;6087;48.982;12.064;2023-02-22T04:19:09;7.40;99.90
12053;DHT22;6087;48.982;12.064;2023-02-22T04:21:36;7.40;99.90
12053;DHT22;6087;48.982;12.064;2023-02-22T04:24:05;7.40;99.90
12053;DHT22;6087;48.982;12.064;2023-02-22T04:26:32;7.40;99.90
12053;DHT22;6087;48.982;12.064;2023-02-22T04:28:59;7.50;99.90
12053;DHT22;6087;48.982;12.064;2023-02-22T04:31:26;7.50;99.90
12053;DHT22;6087;48.982;12.064;2023-02-22T04:33:53;7.50;99.90
12053;DHT22;6087;48.982;12.064;2023-02-22T04:36:20;7.40;99.90
12053;DHT22;6087;48.982;12.064;2023-02-22T04:38:47;7.40;99.90
12053;DHT22;6087;48.982;12.064;2023-02-22T04:41:16;7.40;99.90
12053;DHT22;6087;48.982;12.064;2023-02-22T04:43:43;7.40;99.90
12053;DHT22;6087;48.982;12.064;2023-02-22T04:46:10;7.40;99.90
12053;DHT22;6087;48.982;12.064;2023-02-22T04:48:37;7.30;99.90
12053;DHT22;6087;48.982;12.064;2023-02-22T04:51:04;7.30;99.90
12053;DHT22;6087;48.982;12.064;2023-02-22T04:53:33;7.30;99.90
12053;DHT22;6087;48.982;12.064;2023-02-22T04:56:00;7.30;99.90
12053;DHT22;6087;48.982;12.064;2023-02-22T04:58:28;7.20;99.90
12053;DHT22;6087;48.982;12.064;2023-02-22T05:00:56;7.20;99.90
12053;DHT22;6087;48.982;12.064;2023-02-22T05:03:23;7.20;99.90
12053;DHT22;6087;48.982;12.064;2023-02-22T05:05:51;7.20;99.90
12053;DHT22;6087;48.982;12.064;2023-02-22T05:08:18;7.20;99.90
12053;DHT22;6087;48.982;12.064;2023-02-22T05:10:45;7.20;99.90
12053;DHT22;6087;48.982;12.064;2023-02-22T05:13:12;7.20;99.90
12053;DHT22;6087;48.982;12.064;2023-02-22T05:15:40;7.20;99.90
12053;DHT22;6087;48.982;12.064;2023-02-22T05:18:07;7.20;99.90
12053;DHT22;6087;48.982;12.064;2023-02-22T05:20:34;7.20;99.90
12053;DHT22;6087;48.982;12.064;2023-02-22T05:23:02;7.20;99.90
12053;DHT22;6087;48.982;12.064;2023-02-22T05:25:30;7.10;99.90
12053;DHT22;6087;48.982;12.064;2023-02-22T05:27:59;7.10;99.90
12053;DHT22;6087;48.982;12.064;2023-02-22T05:30:29;7.10;99.90
12053;DHT22;6087;48.982;12.064;2023-02-22T05:32:59;7.10;99.90
12053;DHT22;6087;48.982;12.064;2023-02-22T05:35:27;7.10;99.90
12053;DHT22;6087;48.982;12.064;2023-02-22T05:37:54;7.10;99.90
12053;DHT22;6087;48.982;12.064;2023-02-22T05:40:25;7.10;99.90
12053;DHT22;6087;48.982;12.064;2023-02-22T05:42:52;7.00;99.90
12053;DHT22;6087;48.982;12.064;2023-02-22T05:45:23;7.00;99.90
12053;DHT22;6087;48.982;12.064;2023-02-22T05:47:51;7.00;99.90
12053;DHT22;6087;48.982;12.064;2023-02-22T05:50:21;7.00;99.90
12053;DHT22;6087;48.982;12.064;2023-02-22T05:52:49;7.00;99.90
12053;DHT22;6087;48.982;12.064;2023-02-22T05:55:18;7.00;99.90
12053;DHT22;6087;48.982;12.064;2023-02-22T05:57:45;6.90;99.90
12053;DHT22;6087;48.982;12.064;2023-02-22T06:00:16;6.90;99.90
12053;DHT22;6087;48.982;12.064;2023-02-22T06:02:43;6.90;99.90
12053;DHT22;6087;48.982;12.064;2023-02-22T06:05:11;6.90;99.90
12053;DHT22;6087;48.982;12.064;2023-02-22T06:07:39;6.90;99.90
12053;DHT22;6087;48.982;12.064;2023-02-22T06:10:06;6.80;99.90
12053;DHT22;6087;48.982;12.064;2023-02-22T06:12:33;6.80;99.90
12053;DHT22;6087;48.982;12.064;2023-02-22T06:15:00;6.80;99.90
12053;DHT22;6087;48.982;12.064;2023-02-22T06:17:27;6.80;99.90
12053;DHT22;6087;48.982;12.064;2023-02-22T06:19:55;6.80;99.90
12053;DHT22;6087;48.982;12.064;2023-02-22T06:22:22;6.80;99.90
12053;DHT22;6087;48.982;12.064;2023-02-22T06:24:50;6.70;99.90
12053;DHT22;6087;48.982;12.064;2023-02-22T06:27:18;6.70;99.90
12053;DHT22;6087;48.982;12.064;2023-02-22T06:29:45;6.70;99.90
12053;DHT22;6087;48.982;12.064;2023-02-22T06:32:13;6.70;99.90
12053;DHT22;6087;48.982;12.064;2023-02-22T06:34:40;6.70;99.90
12053;DHT22;6087;48.982;12.064;2023-02-22T06:37:07;6.60;99.90
12053;DHT22;6087;48.982;12.064;2023-02-22T06:39:34;6.60;99.90
12053;DHT22;6087;48.982;12.064;2023-02-22T06:42:05;6.70;99.90
12053;DHT22;6087;48.982;12.064;2023-02-22T06:44:32;6.60;99.90
12053;DHT22;6087;48.982;12.064;2023-02-22T06:46:59;6.60;99.90
12053;DHT22;6087;48.982;12.064;2023-02-22T06:49:26;6.50;99.90
12053;DHT22;6087;48.982;12.064;2023-02-22T06:52:03;6.50;99.90
12053;DHT22;6087;48.982;12.064;2023-02-22T06:54:30;6.50;99.90
12053;DHT22;6087;48.982;12.064;2023-02-22T06:56:57;6.50;99.90
12053;DHT22;6087;48.982;12.064;2023-02-22T06:59:26;6.50;99.90
12053;DHT22;6087;48.982;12.064;2023-02-22T07:01:53;6.50;99.90
12053;DHT22;6087;48.982;12.064;2023-02-22T07:04:22;6.60;99.90
12053;DHT22;6087;48.982;12.064;2023-02-22T07:06:54;6.50;99.90
12053;DHT22;6087;48.982;12.064;2023-02-22T07:09:21;6.50;99.90
12053;DHT22;6087;48.982;12.064;2023-02-22T07:11:48;6.50;99.90
12053;DHT22;6087;48.982;12.064;2023-02-22T07:14:15;6.50;99.90
12053;DHT22;6087;48.982;12.064;2023-02-22T07:16:49;6.50;99.90
12053;DHT22;6087;48.982;12.064;2023-02-22T07:19:15;6.50;99.90
12053;DHT22;6087;48.982;12.064;2023-02-22T07:21:42;6.60;99.90
12053;DHT22;6087;48.982;12.064;2023-02-22T07:24:12;6.60;99.90
12053;DHT22;6087;48.982;12.064;2023-02-22T07:26:40;6.60;99.90
12053;DHT22;6087;48.982;12.064;2023-02-22T07:29:07;6.70;99.90
12053;DHT22;6087;48.982;12.064;2023-02-22T07:31:36;6.70;99.90
12053;DHT22;6087;48.982;12.064;2023-02-22T07:34:05;6.70;99.90
12053;DHT22;6087;48.982;12.064;2023-02-22T07:36:32;6.80;99.90
12053;DHT22;6087;48.982;12.064;2023-02-22T07:38:59;6.80;99.90
12053;DHT22;6087;48.982;12.064;2023-02-22T07:41:26;6.80;99.90
12053;DHT22;6087;48.982;12.064;2023-02-22T07:43:53;6.80;99.90
12053;DHT22;6087;48.982;12.064;2023-02-22T07:46:20;6.90;99.90
12053;DHT22;6087;48.982;12.064;2023-02-22T07:48:47;6.90;99.90
12053;DHT22;6087;48.982;12.064;2023-02-22T07:51:16;6.90;99.90
12053;DHT22;6087;48.982;12.064;2023-02-22T07:53:45;6.90;99.90
12053;DHT22;6087;48.982;12.064;2023-02-22T07:56:12;6.90;99.90
12053;DHT22;6087;48.982;12.064;2023-02-22T07:58:49;6.90;99.90
12053;DHT22;6087;48.982;12.064;2023-02-22T08:01:16;6.90;99.90
12053;DHT22;6087;48.982;12.064;2023-02-22T08:03:43;7.00;99.90
12053;DHT22;6087;48.982;12.064;2023-02-22T08:06:12;7.00;99.90
12053;DHT22;6087;48.982;12.064;2023-02-22T08:08:40;7.00;99.90
12053;DHT22;6087;48.982;12.064;2023-02-22T08:11:07;7.10;99.90
12053;DHT22;6087;48.982;12.064;2023-02-22T08:13:34;7.10;99.90
12053;DHT22;6087;48.982;12.064;2023-02-22T08:16:02;7.20;99.90
12053;DHT22;6087;48.982;12.064;2023-02-22T08:18:34;7.20;99.90
12053;DHT22;6087;48.982;12.064;2023-02-22T08:21:03;7.30;99.90
12053;DHT22;6087;48.982;12.064;2023-02-22T08:23:30;7.30;99.90
12053;DHT22;6087;48.982;12.064;2023-02-22T08:26:04;7.40;99.90
12053;DHT22;6087;48.982;12.064;2023-02-22T08:28:32;7.40;99.90
12053;DHT22;6087;48.982;12.064;2023-02-22T08:30:59;7.40;99.90
12053;DHT22;6087;48.982;12.064;2023-02-22T08:33:26;7.50;99.90
12053;DHT22;6087;48.982;12.064;2023-02-22T08:35:53;7.50;99.90
12053;DHT22;6087;48.982;12.064;2023-02-22T08:38:23;7.60;99.90
12053;DHT22;6087;48.982;12.064;2023-02-22T08:40:50;7.60;99.90
12053;DHT22;6087;48.982;12.064;2023-02-22T08:43:19;7.60;99.90
12053;DHT22;6087;48.982;12.064;2023-02-22T08:45:47;7.70;99.90
12053;DHT22;6087;48.982;12.064;2023-02-22T08:48:16;7.70;99.90
12053;DHT22;6087;48.982;12.064;2023-02-22T08:50:43;7.70;99.90
12053;DHT22;6087;48.982;12.064;2023-02-22T08:53:12;7.70;99.90
12053;DHT22;6087;48.982;12.064;2023-02-22T08:55:40;7.80;99.90
12053;DHT22;6087;48.982;12.064;2023-02-22T08:58:08;7.80;99.90
12053;DHT22;6087;48.982;12.064;2023-02-22T09:00:37;7.90;99.90
12053;DHT22;6087;48.982;12.064;2023-02-22T09:03:06;7.90;99.90
12053;DHT22;6087;48.982;12.064;2023-02-22T09:05:34;8.00;99.90
12053;DHT22;6087;48.982;12.064;2023-02-22T09:08:02;8.00;99.90
12053;DHT22;6087;48.982;12.064;2023-02-22T09:10:32;8.10;99.90
12053;DHT22;6087;48.982;12.064;2023-02-22T09:12:59;8.10;99.90
12053;DHT22;6087;48.982;12.064;2023-02-22T09:15:27;8.20;99.90
12053;DHT22;6087;48.982;12.064;2023-02-22T09:17:56;8.20;99.90
12053;DHT22;6087;48.982;12.064;2023-02-22T09:20:24;8.30;99.90
12053;DHT22;6087;48.982;12.064;2023-02-22T09:22:51;8.30;99.90
12053;DHT22;6087;48.982;12.064;2023-02-22T09:25:19;8.40;99.90
12053;DHT22;6087;48.982;12.064;2023-02-22T09:27:47;8.40;99.90
12053;DHT22;6087;48.982;12.064;2023-02-22T09:30:17;8.40;99.90
12053;DHT22;6087;48.982;12.064;2023-02-22T09:32:46;8.50;99.90
12053;DHT22;6087;48.982;12.064;2023-02-22T09:35:15;8.50;99.90
12053;DHT22;6087;48.982;12.064;2023-02-22T09:37:42;8.50;99.90
12053;DHT22;6087;48.982;12.064;2023-02-22T09:40:14;8.50;99.90
12053;DHT22;6087;48.982;12.064;2023-02-22T09:42:55;8.60;99.90
12053;DHT22;6087;48.982;12.064;2023-02-22T09:45:29;8.60;99.90
12053;DHT22;6087;48.982;12.064;2023-02-22T09:48:04;8.60;99.90
12053;DHT22;6087;48.982;12.064;2023-02-22T09:50:36;8.60;99.90
12053;DHT22;6087;48.982;12.064;2023-02-22T09:53:05;8.70;99.90
12053;DHT22;6087;48.982;12.064;2023-02-22T09:55:45;8.70;99.90
12053;DHT22;6087;48.982;12.064;2023-02-22T09:58:19;8.70;99.90
12053;DHT22;6087;48.982;12.064;2023-02-22T10:00:57;8.70;99.90
12053;DHT22;6087;48.982;12.064;2023-02-22T10:03:32;8.70;99.90
12053;DHT22;6087;48.982;12.064;2023-02-22T10:06:03;8.80;99.90
12053;DHT22;6087;48.982;12.064;2023-02-22T10:08:33;8.80;99.90
12053;DHT22;6087;48.982;12.064;2023-02-22T10:11:08;8.90;99.90
12053;DHT22;6087;48.982;12.064;2023-02-22T10:13:42;8.90;99.90
12053;DHT22;6087;48.982;12.064;2023-02-22T10:16:19;9.00;99.90
12053;DHT22;6087;48.982;12.064;2023-02-22T10:19:16;9.00;99.90
12053;DHT22;6087;48.982;12.064;2023-02-22T10:21:59;9.20;99.90
12053;DHT22;6087;48.982;12.064;2023-02-22T10:24:41;9.20;99.90
12053;DHT22;6087;48.982;12.064;2023-02-22T10:27:16;9.20;99.90
12053;DHT22;6087;48.982;12.064;2023-02-22T10:29:48;9.20;99.90
12053;DHT22;6087;48.982;12.064;2023-02-22T10:32:20;9.30;99.90
12053;DHT22;6087;48.982;12.064;2023-02-22T10:34:50;9.40;99.90
12053;DHT22;6087;48.982;12.064;2023-02-22T10:37:24;9.40;99.90
12053;DHT22;6087;48.982;12.064;2023-02-22T10:39:55;9.50;99.90
12053;DHT22;6087;48.982;12.064;2023-02-22T10:42:26;9.60;99.90
12053;DHT22;6087;48.982;12.064;2023-02-22T10:44:53;9.70;99.90
12053;DHT22;6087;48.982;12.064;2023-02-22T10:47:21;9.70;99.90
12053;DHT22;6087;48.982;12.064;2023-02-22T10:49:52;9.80;99.90
12053;DHT22;6087;48.982;12.064;2023-02-22T10:52:26;9.80;99.90
12053;DHT22;6087;48.982;12.064;2023-02-22T10:54:56;9.80;99.90
12053;DHT22;6087;48.982;12.064;2023-02-22T10:57:25;9.90;99.90
12053;DHT22;6087;48.982;12.064;2023-02-22T10:59:53;10.00;99.90
12053;DHT22;6087;48.982;12.064;2023-02-22T11:02:26;10.10;99.90
12053;DHT22;6087;48.982;12.064;2023-02-22T11:04:55;10.20;99.90
12053;DHT22;6087;48.982;12.064;2023-02-22T11:07:26;10.40;99.90
12053;DHT22;6087;48.982;12.064;2023-02-22T11:09:55;10.50;99.00
12053;DHT22;6087;48.982;12.064;2023-02-22T11:12:28;10.60;99.80
12053;DHT22;6087;48.982;12.064;2023-02-22T11:14:55;10.70;98.70
12053;DHT22;6087;48.982;12.064;2023-02-22T11:17:30;10.80;98.70
12053;DHT22;6087;48.982;12.064;2023-02-22T11:19:57;11.00;98.90
12053;DHT22;6087;48.982;12.064;2023-02-22T11:22:30;11.00;96.60
12053;DHT22;6087;48.982;12.064;2023-02-22T11:25:00;11.10;96.30
12053;DHT22;6087;48.982;12.064;2023-02-22T11:27:36;11.20;95.70
12053;DHT22;6087;48.982;12.064;2023-02-22T11:30:21;11.30;95.30
12053;DHT22;6087;48.982;12.064;2023-02-22T11:32:55;11.50;94.00
12053;DHT22;6087;48.982;12.064;2023-02-22T11:35:39;11.50;93.50
12053;DHT22;6087;48.982;12.064;2023-02-22T11:38:18;11.60;93.60
12053;DHT22;6087;48.982;12.064;2023-02-22T11:41:04;11.60;92.70
12053;DHT22;6087;48.982;12.064;2023-02-22T11:43:31;11.70;92.50
12053;DHT22;6087;48.982;12.064;2023-02-22T11:46:02;11.80;92.20
12053;DHT22;6087;48.982;12.064;2023-02-22T11:48:32;11.90;92.10
12053;DHT22;6087;48.982;12.064;2023-02-22T11:51:15;12.00;92.30
12053;DHT22;6087;48.982;12.064;2023-02-22T11:54:03;12.20;92.00
12053;DHT22;6087;48.982;12.064;2023-02-22T11:56:36;12.40;91.00
12053;DHT22;6087;48.982;12.064;2023-02-22T11:59:14;12.50;89.40
12053;DHT22;6087;48.982;12.064;2023-02-22T12:01:48;12.60;89.50
12053;DHT22;6087;48.982;12.064;2023-02-22T12:07:31;12.70;86.40
12053;DHT22;6087;48.982;12.064;2023-02-22T12:10:18;12.80;85.70
12053;DHT22;6087;48.982;12.064;2023-02-22T12:13:04;12.90;85.20
12053;DHT22;6087;48.982;12.064;2023-02-22T12:15:41;13.00;82.90
12053;DHT22;6087;48.982;12.064;2023-02-22T12:18:18;13.10;82.30
12053;DHT22;6087;48.982;12.064;2023-02-22T12:21:02;13.30;82.70
12053;DHT22;6087;48.982;12.064;2023-02-22T12:23:40;13.50;83.60
12053;DHT22;6087;48.982;12.064;2023-02-22T12:26:14;13.60;81.10
12053;DHT22;6087;48.982;12.064;2023-02-22T12:28:50;13.70;79.20
12053;DHT22;6087;48.982;12.064;2023-02-22T12:31:27;13.80;79.20
12053;DHT22;6087;48.982;12.064;2023-02-22T12:34:03;13.90;78.20
12053;DHT22;6087;48.982;12.064;2023-02-22T12:36:37;14.00;76.50
12053;DHT22;6087;48.982;12.064;2023-02-22T12:39:22;14.20;74.80
12053;DHT22;6087;48.982;12.064;2023-02-22T12:41:54;14.80;73.30
12053;DHT22;6087;48.982;12.064;2023-02-22T12:44:24;14.80;71.60
12053;DHT22;6087;48.982;12.064;2023-02-22T12:46:57;14.90;69.60
12053;DHT22;6087;48.982;12.064;2023-02-22T12:49:30;14.80;67.90
12053;DHT22;6087;48.982;12.064;2023-02-22T12:52:03;14.80;67.90
12053;DHT22;6087;48.982;12.064;2023-02-22T12:54:40;14.70;67.30
12053;DHT22;6087;48.982;12.064;2023-02-22T12:57:15;14.70;66.90
12053;DHT22;6087;48.982;12.064;2023-02-22T12:59:47;15.00;67.00
12053;DHT22;6087;48.982;12.064;2023-02-22T13:02:20;15.70;66.60
12053;DHT22;6087;48.982;12.064;2023-02-22T13:04:48;16.30;62.30
12053;DHT22;6087;48.982;12.064;2023-02-22T13:07:24;16.90;60.40
12053;DHT22;6087;48.982;12.064;2023-02-22T13:13:00;19.40;51.60
12053;DHT22;6087;48.982;12.064;2023-02-22T13:15:35;19.90;45.70
12053;DHT22;6087;48.982;12.064;2023-02-22T13:18:08;20.40;39.30
12053;DHT22;6087;48.982;12.064;2023-02-22T13:20:44;20.80;36.80
12053;DHT22;6087;48.982;12.064;2023-02-22T13:23:17;20.90;35.00
12053;DHT22;6087;48.982;12.064;2023-02-22T13:25:54;21.00;32.50
12053;DHT22;6087;48.982;12.064;2023-02-22T13:28:32;21.30;30.00
12053;DHT22;6087;48.982;12.064;2023-02-22T13:34:05;23.00;24.60
12053;DHT22;6087;48.982;12.064;2023-02-22T13:36:48;24.00;20.50
12053;DHT22;6087;48.982;12.064;2023-02-22T13:39:42;24.80;16.30
12053;DHT22;6087;48.982;12.064;2023-02-22T13:42:36;25.40;9.40
12053;DHT22;6087;48.982;12.064;2023-02-22T13:49:08;25.60;1.00
12053;DHT22;6087;48.982;12.064;2023-02-22T13:51:45;25.20;1.00
12053;DHT22;6087;48.982;12.064;2023-02-22T13:54:18;24.80;1.00
12053;DHT22;6087;48.982;12.064;2023-02-22T13:56:49;24.60;1.00
12053;DHT22;6087;48.982;12.064;2023-02-22T13:59:28;24.40;1.00
12053;DHT22;6087;48.982;12.064;2023-02-22T14:01:58;24.30;1.00
12053;DHT22;6087;48.982;12.064;2023-02-22T14:04:40;24.20;1.00
12053;DHT22;6087;48.982;12.064;2023-02-22T14:10:37;24.50;1.00
12053;DHT22;6087;48.982;12.064;2023-02-22T14:13:05;24.60;1.00
12053;DHT22;6087;48.982;12.064;2023-02-22T14:15:33;24.90;1.00
12053;DHT22;6087;48.982;12.064;2023-02-22T14:18:02;25.50;1.00
12053;DHT22;6087;48.982;12.064;2023-02-22T14:20:31;26.00;1.00
12053;DHT22;6087;48.982;12.064;2023-02-22T14:23:25;26.60;1.00
12053;DHT22;6087;48.982;12.064;2023-02-22T14:25:52;27.30;1.00
12053;DHT22;6087;48.982;12.064;2023-02-22T14:28:38;27.70;1.00
12053;DHT22;6087;48.982;12.064;2023-02-22T14:31:08;28.30;1.00
12053;DHT22;6087;48.982;12.064;2023-02-22T14:36:34;29.00;1.00
12053;DHT22;6087;48.982;12.064;2023-02-22T14:39:13;29.00;1.00
12053;DHT22;6087;48.982;12.064;2023-02-22T14:41:47;28.90;1.00
12053;DHT22;6087;48.982;12.064;2023-02-22T14:44:22;28.90;1.00
12053;DHT22;6087;48.982;12.064;2023-02-22T14:46:51;28.90;1.00
12053;DHT22;6087;48.982;12.064;2023-02-22T14:49:22;28.90;1.00
12053;DHT22;6087;48.982;12.064;2023-02-22T14:51:54;28.70;1.00
12053;DHT22;6087;48.982;12.064;2023-02-22T14:54:27;27.90;1.00
12053;DHT22;6087;48.982;12.064;2023-02-22T14:57:08;27.10;1.00
12053;DHT22;6087;48.982;12.064;2023-02-22T14:59:49;26.10;1.00
12053;DHT22;6087;48.982;12.064;2023-02-22T15:02:19;25.10;1.00
12053;DHT22;6087;48.982;12.064;2023-02-22T15:04:52;24.30;1.00
12053;DHT22;6087;48.982;12.064;2023-02-22T15:07:24;23.70;1.00
12053;DHT22;6087;48.982;12.064;2023-02-22T15:10:05;23.10;1.00
12053;DHT22;6087;48.982;12.064;2023-02-22T15:12:33;22.60;1.00
12053;DHT22;6087;48.982;12.064;2023-02-22T15:15:11;22.00;1.00
12053;DHT22;6087;48.982;12.064;2023-02-22T15:17:39;21.50;1.00
12053;DHT22;6087;48.982;12.064;2023-02-22T15:20:11;21.10;1.00
12053;DHT22;6087;48.982;12.064;2023-02-22T15:22:40;20.70;1.00
12053;DHT22;6087;48.982;12.064;2023-02-22T15:25:08;20.30;1.00
12053;DHT22;6087;48.982;12.064;2023-02-22T15:27:36;20.00;1.00
12053;DHT22;6087;48.982;12.064;2023-02-22T15:30:06;19.60;1.00
12053;DHT22;6087;48.982;12.064;2023-02-22T15:32:35;19.30;1.00
12053;DHT22;6087;48.982;12.064;2023-02-22T15:35:17;19.00;1.00
12053;DHT22;6087;48.982;12.064;2023-02-22T15:37:45;18.70;1.00
12053;DHT22;6087;48.982;12.064;2023-02-22T15:40:14;18.40;1.00
12053;DHT22;6087;48.982;12.064;2023-02-22T15:42:43;18.10;1.00
12053;DHT22;6087;48.982;12.064;2023-02-22T15:45:14;17.90;1.00
12053;DHT22;6087;48.982;12.064;2023-02-22T15:47:42;17.70;1.00
12053;DHT22;6087;48.982;12.064;2023-02-22T15:50:19;17.40;1.00
12053;DHT22;6087;48.982;12.064;2023-02-22T15:52:52;17.20;1.00
12053;DHT22;6087;48.982;12.064;2023-02-22T15:55:27;17.00;1.00
12053;DHT22;6087;48.982;12.064;2023-02-22T15:57:55;16.90;1.00
12053;DHT22;6087;48.982;12.064;2023-02-22T16:00:25;16.70;1.00
12053;DHT22;6087;48.982;12.064;2023-02-22T16:03:01;16.60;1.00
12053;DHT22;6087;48.982;12.064;2023-02-22T16:05:37;16.40;1.00
12053;DHT22;6087;48.982;12.064;2023-02-22T16:08:13;16.30;1.00
12053;DHT22;6087;48.982;12.064;2023-02-22T16:10:44;16.10;1.00
12053;DHT22;6087;48.982;12.064;2023-02-22T16:13:19;16.00;1.00
12053;DHT22;6087;48.982;12.064;2023-02-22T16:15:56;15.90;2.20
12053;DHT22;6087;48.982;12.064;2023-02-22T16:18:29;15.70;3.40
12053;DHT22;6087;48.982;12.064;2023-02-22T16:21:05;15.60;4.80
12053;DHT22;6087;48.982;12.064;2023-02-22T16:23:44;15.50;6.10
12053;DHT22;6087;48.982;12.064;2023-02-22T16:26:24;15.40;7.40
12053;DHT22;6087;48.982;12.064;2023-02-22T16:28:53;15.30;8.70
12053;DHT22;6087;48.982;12.064;2023-02-22T16:31:23;15.20;9.90
12053;DHT22;6087;48.982;12.064;2023-02-22T16:33:51;15.10;10.80